Terminal Aerodrome Forecast
Issued by NWS

Home | Current Version | Previous Version | Text Only | Print | Product List | Glossary On
Versions: 1 2 3 4 5 6 7 8 9 10 11 12 13 14 15 16 17 18 19 20 21 22 23 24 25 26 27
000
FTUS43 KDVN 211100
TAFCID
TAF
KCID 211130Z 2112/2212 16010KT 5SM BR OVC015
      TEMPO 2112/2114 2SM -DZ BR OVC008
     FM211600 17014KT P6SM OVC010
     FM220000 16013KT 5SM BR VCSH OVC008
     FM220800 15012KT 3SM -RA BR OVC004=

USA.gov is the U.S. government's official web portal to all federal, state and local government web resources and services.